createdAt,value
2023-04-26T00:01:43.136Z,1.67
2023-04-26T00:04:09.791Z,2.10
2023-04-26T00:06:36.612Z,1.40
2023-04-26T00:09:03.205Z,1.70
2023-04-26T00:11:29.419Z,1.70
2023-04-26T00:13:55.725Z,1.63
2023-04-26T00:16:22.044Z,2.22
2023-04-26T00:18:48.477Z,1.95
2023-04-26T00:21:14.688Z,1.65
2023-04-26T00:23:41.086Z,1.52
2023-04-26T00:26:12.874Z,1.33
2023-04-26T00:28:39.281Z,1.67
2023-04-26T00:31:13.745Z,1.92
2023-04-26T00:33:41.232Z,2.28
2023-04-26T00:36:07.771Z,1.27
2023-04-26T00:38:36.020Z,1.55
2023-04-26T00:41:02.329Z,1.30
2023-04-26T00:43:28.674Z,1.20
2023-04-26T00:45:54.976Z,1.42
2023-04-26T00:48:21.384Z,2.03
2023-04-26T00:50:52.972Z,1.17
2023-04-26T00:53:19.235Z,1.52
2023-04-26T00:55:49.811Z,1.55
2023-04-26T00:58:16.122Z,1.48
2023-04-26T01:00:43.493Z,1.80
2023-04-26T01:03:12.910Z,1.90
2023-04-26T01:05:41.789Z,1.45
2023-04-26T01:08:10.437Z,2.00
2023-04-26T01:10:36.998Z,2.00
2023-04-26T01:13:05.860Z,1.65
2023-04-26T01:15:32.515Z,2.05
2023-04-26T01:18:03.368Z,1.70
2023-04-26T01:22:55.880Z,2.67
2023-04-26T01:25:22.212Z,1.83
2023-04-26T01:27:50.765Z,1.70
2023-04-26T01:30:17.008Z,1.92
2023-04-26T01:32:43.329Z,2.15
2023-04-26T01:35:09.673Z,2.10
2023-04-26T01:37:37.750Z,1.75
2023-04-26T01:40:05.224Z,1.88
2023-04-26T01:42:40.381Z,1.70
2023-04-26T01:45:09.629Z,1.70
2023-04-26T01:47:35.917Z,1.27
2023-04-26T01:50:02.227Z,1.17
2023-04-26T01:52:28.679Z,1.58
2023-04-26T01:54:55.084Z,1.70
2023-04-26T01:57:21.332Z,2.28
2023-04-26T01:59:47.718Z,2.08
2023-04-26T02:02:17.420Z,1.55
2023-04-26T02:04:43.785Z,1.80
2023-04-26T02:07:10.146Z,2.63
2023-04-26T02:09:37.712Z,2.72
2023-04-26T02:12:05.141Z,2.00
2023-04-26T02:14:31.415Z,1.77
2023-04-26T02:17:02.072Z,2.22
2023-04-26T02:19:29.402Z,1.48
2023-04-26T02:21:56.351Z,2.25
2023-04-26T02:24:26.580Z,1.73
2023-04-26T02:26:58.200Z,2.25
2023-04-26T02:29:39.895Z,1.88
2023-04-26T02:32:09.073Z,1.85
2023-04-26T02:34:35.549Z,1.65
2023-04-26T02:37:04.628Z,1.75
2023-04-26T02:39:33.535Z,1.80
2023-04-26T02:42:02.466Z,2.35
2023-04-26T02:44:31.298Z,2.03
2023-04-26T02:46:59.876Z,1.80
2023-04-26T02:49:26.179Z,1.60
2023-04-26T02:51:54.887Z,1.50
2023-04-26T02:54:24.102Z,1.83
2023-04-26T02:56:50.397Z,2.25
2023-04-26T02:59:19.819Z,2.28
2023-04-26T03:01:46.049Z,1.77
2023-04-26T03:04:12.379Z,2.00
2023-04-26T03:06:41.056Z,1.90
2023-04-26T03:09:07.343Z,1.55
2023-04-26T03:11:33.733Z,1.92
2023-04-26T03:14:00.089Z,1.65
2023-04-26T03:16:27.659Z,1.80
2023-04-26T03:18:56.231Z,1.85
2023-04-26T03:21:22.557Z,1.83
2023-04-26T03:23:48.835Z,1.70
2023-04-26T03:26:15.108Z,1.63
2023-04-26T03:28:41.584Z,2.08
2023-04-26T03:31:07.995Z,1.73
2023-04-26T03:33:38.130Z,2.40
2023-04-26T03:36:05.794Z,1.77
2023-04-26T03:38:32.015Z,2.50
2023-04-26T03:40:58.367Z,2.00
2023-04-26T03:43:24.617Z,1.65
2023-04-26T03:45:51.309Z,2.33
2023-04-26T03:48:17.662Z,1.95
2023-04-26T03:50:45.276Z,2.17
2023-04-26T03:53:11.992Z,3.20
2023-04-26T03:55:38.325Z,1.98
2023-04-26T03:58:07.102Z,2.22
2023-04-26T04:00:53.569Z,2.05
2023-04-26T04:03:19.918Z,2.10
2023-04-26T04:05:46.508Z,2.20
2023-04-26T04:08:13.052Z,2.95
2023-04-26T04:10:42.017Z,3.35
2023-04-26T04:13:08.477Z,2.15
2023-04-26T04:15:40.379Z,1.52
2023-04-26T04:18:06.843Z,2.38
2023-04-26T04:20:33.175Z,2.53
2023-04-26T04:22:59.626Z,3.13
2023-04-26T04:25:25.993Z,2.50
2023-04-26T04:27:52.202Z,2.63
2023-04-26T04:30:18.428Z,2.30
2023-04-26T04:32:46.186Z,2.25
2023-04-26T04:35:13.207Z,2.45
2023-04-26T04:37:39.697Z,2.03
2023-04-26T04:40:06.342Z,2.53
2023-04-26T04:42:32.595Z,2.60
2023-04-26T04:44:58.938Z,2.10
2023-04-26T04:47:25.421Z,2.38
2023-04-26T04:49:51.680Z,2.50
2023-04-26T04:52:19.037Z,2.08
2023-04-26T04:54:45.522Z,2.55
2023-04-26T04:57:15.611Z,2.33
2023-04-26T04:59:41.964Z,2.08
2023-04-26T05:02:11.072Z,1.90
2023-04-26T05:04:38.522Z,2.45
2023-04-26T05:07:05.184Z,2.75
2023-04-26T05:09:31.496Z,2.60
2023-04-26T05:11:57.746Z,2.65
2023-04-26T05:14:24.213Z,3.05
2023-04-26T05:16:50.551Z,2.88
2023-04-26T05:19:18.013Z,2.38
2023-04-26T05:21:45.289Z,3.17
2023-04-26T05:24:11.532Z,2.95
2023-04-26T05:26:37.886Z,2.85
2023-04-26T05:29:04.727Z,3.00
2023-04-26T05:31:34.077Z,2.88
2023-04-26T05:34:00.344Z,2.78
2023-04-26T05:36:29.185Z,3.30
2023-04-26T05:39:02.001Z,3.15
2023-04-26T05:41:28.206Z,3.85
2023-04-26T05:43:54.626Z,3.88
2023-04-26T05:46:27.747Z,4.05
2023-04-26T05:48:54.186Z,4.47
2023-04-26T05:51:20.934Z,3.55
2023-04-26T05:53:47.153Z,3.13
2023-04-26T05:56:13.533Z,2.60
2023-04-26T05:58:39.737Z,2.65
2023-04-26T06:01:06.254Z,3.33
2023-04-26T06:03:35.516Z,2.80
2023-04-26T06:06:02.171Z,3.28
2023-04-26T06:08:28.576Z,2.72
2023-04-26T06:10:54.836Z,2.63
2023-04-26T06:13:21.082Z,3.10
2023-04-26T06:15:50.309Z,2.60
2023-04-26T06:18:16.667Z,3.20
2023-04-26T06:20:43.175Z,3.03
2023-04-26T06:23:10.323Z,3.40
2023-04-26T06:25:36.529Z,1.88
2023-04-26T06:28:05.003Z,1.90
2023-04-26T06:30:34.070Z,2.00
2023-04-26T06:33:00.618Z,2.50
2023-04-26T06:35:26.906Z,1.67
2023-04-26T06:37:53.130Z,1.80
2023-04-26T06:40:19.545Z,1.40
2023-04-26T06:42:45.922Z,1.85
2023-04-26T06:45:12.446Z,1.40
2023-04-26T06:47:38.695Z,1.17
2023-04-26T06:50:05.260Z,1.25
2023-04-26T06:52:31.516Z,1.83
2023-04-26T06:55:00.922Z,1.45
2023-04-26T06:57:27.203Z,1.73
2023-04-26T06:59:53.491Z,0.95
2023-04-26T07:02:20.222Z,0.85
2023-04-26T07:04:49.523Z,1.48
2023-04-26T07:07:17.269Z,1.50
2023-04-26T07:09:43.802Z,1.20
2023-04-26T07:12:13.396Z,1.40
2023-04-26T07:14:39.777Z,1.10
2023-04-26T07:17:06.584Z,1.10
2023-04-26T07:19:32.918Z,1.65
2023-04-26T07:21:59.485Z,1.10
2023-04-26T07:24:34.180Z,1.00
2023-04-26T07:27:00.745Z,0.90
2023-04-26T07:29:27.210Z,1.52
2023-04-26T07:31:53.485Z,1.58
2023-04-26T07:34:20.002Z,1.63
2023-04-26T07:36:47.293Z,1.77
2023-04-26T07:39:14.052Z,1.48
2023-04-26T07:41:42.621Z,1.50
2023-04-26T07:44:10.599Z,1.45
2023-04-26T07:46:36.885Z,1.50
2023-04-26T07:49:03.148Z,1.20
2023-04-26T07:51:31.001Z,1.45
2023-04-26T07:53:57.358Z,1.83
2023-04-26T07:56:23.969Z,1.90
2023-04-26T07:58:50.386Z,1.83
2023-04-26T08:01:19.442Z,1.20
2023-04-26T08:03:45.983Z,1.30
2023-04-26T08:06:15.568Z,1.50
2023-04-26T08:08:42.110Z,1.30
2023-04-26T08:11:12.026Z,1.77
2023-04-26T08:13:38.390Z,1.83
2023-04-26T08:16:05.016Z,1.15
2023-04-26T08:18:33.497Z,1.55
2023-04-26T08:21:00.189Z,0.98
2023-04-26T08:23:26.565Z,1.05
2023-04-26T08:25:54.030Z,1.30
2023-04-26T08:28:20.410Z,1.48
2023-04-26T08:30:48.099Z,1.38
2023-04-26T08:33:16.446Z,1.10
2023-04-26T08:35:44.489Z,1.30
2023-04-26T08:38:10.740Z,0.85
2023-04-26T08:40:41.590Z,1.20
2023-04-26T08:43:09.119Z,0.88
2023-04-26T08:45:37.101Z,0.80
2023-04-26T08:48:07.210Z,0.63
2023-04-26T08:50:34.324Z,0.65
2023-04-26T08:53:02.203Z,1.10
2023-04-26T08:55:28.680Z,1.17
2023-04-26T08:57:55.690Z,0.75
2023-04-26T09:00:21.917Z,1.40
2023-04-26T09:02:52.570Z,0.90
2023-04-26T09:05:19.727Z,0.95
2023-04-26T09:07:46.838Z,0.57
2023-04-26T09:10:17.970Z,0.90
2023-04-26T09:12:45.584Z,1.00
2023-04-26T09:15:16.594Z,1.00
2023-04-26T09:17:42.972Z,1.05
2023-04-26T09:20:25.949Z,0.90
2023-04-26T09:22:53.355Z,0.60
2023-04-26T09:25:29.084Z,1.02
2023-04-26T09:27:55.553Z,0.75
2023-04-26T09:30:22.659Z,0.93
2023-04-26T09:32:50.131Z,1.35
2023-04-26T09:35:26.504Z,1.00
2023-04-26T09:37:58.735Z,0.40
2023-04-26T09:40:28.506Z,1.20
2023-04-26T09:43:00.258Z,0.90
2023-04-26T09:45:32.874Z,0.95
2023-04-26T09:48:18.277Z,1.08
2023-04-26T09:50:45.376Z,0.82
2023-04-26T09:53:12.022Z,0.90
2023-04-26T09:55:40.856Z,1.23
2023-04-26T09:58:10.861Z,0.57
2023-04-26T10:00:38.434Z,1.45
2023-04-26T10:03:08.734Z,0.50
2023-04-26T10:05:36.012Z,0.40
2023-04-26T10:08:04.504Z,1.20
2023-04-26T10:10:31.063Z,0.85
2023-04-26T10:12:58.347Z,0.63
2023-04-26T10:15:24.595Z,1.17
2023-04-26T10:17:52.152Z,0.80
2023-04-26T10:20:20.442Z,0.65
2023-04-26T10:22:56.562Z,0.90
2023-04-26T10:25:34.663Z,1.05
2023-04-26T10:28:04.651Z,0.60
2023-04-26T10:30:33.704Z,0.98
2023-04-26T10:33:00.335Z,0.65
2023-04-26T10:35:30.049Z,1.20
2023-04-26T10:37:59.236Z,0.68
2023-04-26T10:43:08.815Z,0.95
2023-04-26T10:45:37.885Z,1.08
2023-04-26T10:48:23.545Z,0.90
2023-04-26T10:50:59.280Z,1.00
2023-04-26T10:53:26.079Z,0.57
2023-04-26T10:55:52.347Z,0.80
2023-04-26T10:58:29.576Z,0.65
2023-04-26T11:01:08.894Z,0.85
2023-04-26T11:03:42.769Z,0.73
2023-04-26T11:06:09.941Z,1.25
2023-04-26T11:08:40.265Z,0.80
2023-04-26T11:11:07.903Z,0.75
2023-04-26T11:13:39.048Z,1.20
2023-04-26T11:16:09.517Z,0.90
2023-04-26T11:18:39.424Z,1.08
2023-04-26T11:21:11.784Z,0.70
2023-04-26T11:23:40.773Z,0.50
2023-04-26T11:26:13.580Z,0.50
2023-04-26T11:28:39.867Z,1.33
2023-04-26T11:31:06.887Z,0.50
2023-04-26T11:33:33.538Z,0.88
2023-04-26T11:36:02.969Z,0.90
2023-04-26T11:38:31.644Z,0.98
2023-04-26T11:40:58.278Z,0.85
2023-04-26T11:43:37.417Z,0.50
2023-04-26T11:46:09.890Z,0.43
2023-04-26T11:48:44.938Z,0.70
2023-04-26T11:51:11.484Z,0.60
2023-04-26T11:53:39.037Z,0.80
2023-04-26T11:56:13.367Z,0.80
2023-04-26T11:58:39.688Z,0.32
2023-04-26T12:01:05.904Z,0.70
2023-04-26T12:03:32.594Z,0.75
2023-04-26T12:05:59.227Z,0.70
2023-04-26T12:08:26.277Z,0.80
2023-04-26T12:10:53.023Z,0.80
2023-04-26T12:13:26.899Z,0.60
2023-04-26T12:15:55.959Z,1.10
2023-04-26T12:18:22.424Z,0.68
2023-04-26T12:20:49.011Z,0.75
2023-04-26T12:23:18.176Z,1.15
2023-04-26T12:25:54.383Z,0.90
2023-04-26T12:28:25.239Z,0.73
2023-04-26T12:30:51.723Z,0.68
2023-04-26T12:33:18.215Z,0.52
2023-04-26T12:35:44.786Z,0.60
2023-04-26T12:38:11.491Z,1.17
2023-04-26T12:40:38.123Z,0.95
2023-04-26T12:43:04.394Z,0.68
2023-04-26T12:45:30.786Z,1.30
2023-04-26T12:47:59.969Z,0.60
2023-04-26T12:50:26.723Z,1.10
2023-04-26T12:52:53.216Z,0.60
2023-04-26T12:55:19.960Z,0.73
2023-04-26T12:57:47.464Z,0.80
2023-04-26T13:00:17.279Z,0.80
2023-04-26T13:02:47.493Z,0.70
2023-04-26T13:05:15.947Z,0.57
2023-04-26T13:07:44.779Z,0.90
2023-04-26T13:10:13.127Z,1.05
2023-04-26T13:12:43.264Z,1.10
2023-04-26T13:15:09.802Z,1.15
2023-04-26T13:17:37.303Z,1.05
2023-04-26T13:20:06.360Z,1.10
2023-04-26T13:22:33.647Z,1.30
2023-04-26T13:24:59.985Z,1.10
2023-04-26T13:27:29.109Z,0.93
2023-04-26T13:29:56.923Z,1.30
2023-04-26T13:32:25.924Z,1.30
2023-04-26T13:34:52.300Z,0.60
2023-04-26T13:37:21.723Z,1.20
2023-04-26T13:39:48.705Z,1.10
2023-04-26T13:42:18.239Z,1.15
2023-04-26T13:44:44.702Z,1.20
2023-04-26T13:47:10.960Z,1.00
2023-04-26T13:49:40.422Z,1.23
2023-04-26T13:52:06.706Z,1.00
2023-04-26T13:54:34.204Z,1.30
2023-04-26T13:57:00.467Z,0.70
2023-04-26T13:59:26.722Z,0.65
2023-04-26T14:01:56.966Z,1.00
2023-04-26T14:04:25.346Z,1.05
2023-04-26T14:06:54.183Z,0.77
2023-04-26T14:09:21.628Z,0.88
2023-04-26T14:11:57.002Z,0.90
2023-04-26T14:14:34.967Z,0.93
2023-04-26T14:17:03.532Z,1.38
2023-04-26T14:19:29.808Z,1.35
2023-04-26T14:21:56.151Z,1.10
2023-04-26T14:24:25.361Z,0.88
2023-04-26T14:26:55.704Z,0.90
2023-04-26T14:29:26.155Z,1.10
2023-04-26T14:34:22.966Z,1.42
2023-04-26T14:36:49.312Z,1.45
2023-04-26T14:39:15.633Z,1.08
2023-04-26T14:41:42.335Z,1.60
2023-04-26T14:44:08.922Z,1.15
2023-04-26T14:46:35.749Z,1.27
2023-04-26T14:49:02.114Z,1.67
2023-04-26T14:51:29.529Z,1.30
2023-04-26T14:53:56.968Z,1.13
2023-04-26T14:56:23.416Z,0.88
2023-04-26T14:58:49.624Z,1.23
2023-04-26T15:01:15.937Z,0.98
2023-04-26T15:03:47.987Z,0.95
2023-04-26T15:06:14.722Z,1.00
2023-04-26T15:08:42.434Z,1.08
2023-04-26T15:11:08.783Z,1.00
2023-04-26T15:13:38.324Z,0.75
2023-04-26T15:16:07.560Z,0.75
2023-04-26T15:18:35.525Z,0.70
2023-04-26T15:21:01.803Z,1.42
2023-04-26T15:23:28.111Z,1.05
2023-04-26T15:25:54.449Z,1.42
2023-04-26T15:28:20.764Z,1.48
2023-04-26T15:30:47.042Z,1.17
2023-04-26T15:33:14.540Z,0.90
2023-04-26T15:35:49.574Z,1.08
2023-04-26T15:38:15.822Z,0.93
2023-04-26T15:40:42.388Z,1.23
2023-04-26T15:43:08.616Z,1.00
2023-04-26T15:45:35.156Z,1.23
2023-04-26T15:48:04.641Z,1.20
2023-04-26T15:50:30.964Z,0.93
2023-04-26T15:52:57.216Z,1.23
2023-04-26T15:55:24.039Z,1.08
2023-04-26T15:57:50.497Z,1.00
2023-04-26T16:00:16.933Z,1.17
2023-04-26T16:02:43.269Z,1.20
2023-04-26T16:05:10.304Z,1.10
2023-04-26T16:07:42.308Z,1.00
2023-04-26T16:10:12.053Z,1.70
2023-04-26T16:12:38.639Z,0.82
2023-04-26T16:15:06.008Z,1.15
2023-04-26T16:17:34.999Z,1.35
2023-04-26T16:20:04.182Z,1.35
2023-04-26T16:22:30.726Z,1.10
2023-04-26T16:24:58.243Z,0.82
2023-04-26T16:27:24.874Z,1.08
2023-04-26T16:29:51.181Z,1.08
2023-04-26T16:32:17.502Z,0.60
2023-04-26T16:34:43.824Z,0.68
2023-04-26T16:37:10.166Z,1.33
2023-04-26T16:39:36.458Z,1.15
2023-04-26T16:42:02.874Z,0.50
2023-04-26T16:44:31.679Z,0.60
2023-04-26T16:47:01.314Z,1.08
2023-04-26T16:49:35.304Z,1.25
2023-04-26T16:52:01.591Z,1.30
2023-04-26T16:54:29.316Z,1.10
2023-04-26T16:56:56.268Z,1.35
2023-04-26T16:59:22.806Z,1.13
2023-04-26T17:01:53.221Z,0.82
2023-04-26T17:04:19.909Z,0.90
2023-04-26T17:06:48.748Z,0.68
2023-04-26T17:09:15.173Z,1.15
2023-04-26T17:11:43.929Z,0.60
2023-04-26T17:14:10.605Z,0.80
2023-04-26T17:16:43.289Z,0.75
2023-04-26T17:19:09.589Z,0.98
2023-04-26T17:21:39.848Z,1.00
2023-04-26T17:24:06.499Z,0.90
2023-04-26T17:26:35.206Z,0.70
2023-04-26T17:29:01.531Z,0.85
2023-04-26T17:31:28.049Z,0.70
2023-04-26T17:34:00.928Z,1.20
2023-04-26T17:36:31.390Z,1.10
2023-04-26T17:39:00.026Z,1.00
2023-04-26T17:41:26.293Z,0.82
2023-04-26T17:43:52.561Z,1.33
2023-04-26T17:46:19.063Z,1.15
2023-04-26T17:48:51.267Z,1.20
2023-04-26T17:51:19.447Z,0.75
2023-04-26T17:53:45.873Z,0.75
2023-04-26T17:56:14.135Z,1.33
2023-04-26T17:58:40.487Z,1.40
2023-04-26T18:01:12.346Z,1.33
2023-04-26T18:06:07.447Z,1.23
2023-04-26T18:08:35.125Z,0.80
2023-04-26T18:11:01.486Z,1.27
2023-04-26T18:13:30.620Z,1.30
2023-04-26T18:15:56.920Z,1.20
2023-04-26T18:18:24.602Z,0.90
2023-04-26T18:20:51.934Z,0.70
2023-04-26T18:23:18.298Z,1.55
2023-04-26T18:25:44.925Z,0.98
2023-04-26T18:28:13.691Z,1.30
2023-04-26T18:30:39.985Z,1.25
2023-04-26T18:33:06.250Z,0.70
2023-04-26T18:35:32.637Z,1.30
2023-04-26T18:38:02.071Z,1.15
2023-04-26T18:40:28.309Z,0.98
2023-04-26T18:42:54.793Z,1.17
2023-04-26T18:45:21.173Z,1.05
2023-04-26T18:47:47.640Z,0.98
2023-04-26T18:50:14.115Z,0.63
2023-04-26T18:52:40.427Z,1.40
2023-04-26T18:55:11.733Z,1.05
2023-04-26T18:57:37.991Z,0.77
2023-04-26T19:00:04.505Z,0.85
2023-04-26T19:02:30.862Z,1.00
2023-04-26T19:04:57.346Z,1.15
2023-04-26T19:07:24.814Z,1.27
2023-04-26T19:09:54.464Z,1.20
2023-04-26T19:12:23.322Z,1.15
2023-04-26T19:14:51.384Z,0.90
2023-04-26T19:17:17.826Z,1.05
2023-04-26T19:22:26.791Z,1.02
2023-04-26T19:24:55.410Z,1.00
2023-04-26T19:27:21.783Z,0.80
2023-04-26T19:29:48.223Z,0.88
2023-04-26T19:32:14.564Z,0.82
2023-04-26T19:34:41.025Z,1.02
2023-04-26T19:37:07.419Z,1.27
2023-04-26T19:39:35.008Z,0.88
2023-04-26T19:42:08.894Z,0.88
2023-04-26T19:44:36.085Z,1.15
2023-04-26T19:47:02.863Z,1.23
2023-04-26T19:49:29.285Z,0.82
2023-04-26T19:51:55.571Z,0.80
2023-04-26T19:54:21.829Z,1.05
2023-04-26T19:56:53.564Z,1.20
2023-04-26T19:59:19.886Z,0.93
2023-04-26T20:01:46.173Z,1.10
2023-04-26T20:04:12.479Z,1.40
2023-04-26T20:06:41.688Z,1.33
2023-04-26T20:09:11.726Z,0.80
2023-04-26T20:11:39.140Z,1.40
2023-04-26T20:14:09.184Z,0.90
2023-04-26T20:16:37.350Z,1.33
2023-04-26T20:19:03.972Z,1.48
2023-04-26T20:21:30.401Z,0.88
2023-04-26T20:23:56.662Z,1.60
2023-04-26T20:26:22.938Z,1.63
2023-04-26T20:28:49.223Z,1.27
2023-04-26T20:31:17.457Z,1.20
2023-04-26T20:33:43.735Z,1.20
2023-04-26T20:36:13.021Z,1.23
2023-04-26T20:38:39.372Z,1.33
2023-04-26T20:41:05.596Z,1.35
2023-04-26T20:43:31.886Z,1.17
2023-04-26T20:45:58.376Z,1.58
2023-04-26T20:48:24.774Z,1.30
2023-04-26T20:50:53.356Z,0.93
2023-04-26T20:53:19.764Z,1.52
2023-04-26T20:55:46.046Z,1.23
2023-04-26T20:58:15.312Z,1.52
2023-04-26T21:00:41.577Z,1.65
2023-04-26T21:03:07.945Z,2.05
2023-04-26T21:05:38.607Z,0.98
2023-04-26T21:08:04.995Z,1.27
2023-04-26T21:10:31.276Z,1.10
2023-04-26T21:12:57.540Z,1.08
2023-04-26T21:15:31.484Z,1.30
2023-04-26T21:17:58.185Z,1.02
2023-04-26T21:20:24.647Z,1.30
2023-04-26T21:22:55.253Z,1.65
2023-04-26T21:25:21.498Z,1.20
2023-04-26T21:27:47.975Z,1.13
2023-04-26T21:30:14.414Z,1.20
2023-04-26T21:32:40.696Z,1.15
2023-04-26T21:35:08.442Z,0.77
2023-04-26T21:37:40.751Z,1.40
2023-04-26T21:40:07.571Z,1.10
2023-04-26T21:42:36.517Z,1.00
2023-04-26T21:45:06.715Z,1.00
2023-04-26T21:47:42.127Z,1.00
2023-04-26T21:50:08.624Z,1.35
2023-04-26T21:52:34.958Z,0.93
2023-04-26T21:55:01.285Z,1.38
2023-04-26T21:57:28.769Z,0.93
2023-04-26T21:59:55.597Z,1.15
2023-04-26T22:02:21.992Z,1.02
2023-04-26T22:04:56.415Z,1.25
2023-04-26T22:07:22.697Z,0.85
2023-04-26T22:09:48.953Z,0.85
2023-04-26T22:12:15.224Z,1.10
2023-04-26T22:14:41.473Z,0.70
2023-04-26T22:17:07.779Z,0.60
2023-04-26T22:19:34.203Z,0.90
2023-04-26T22:22:00.505Z,1.08
2023-04-26T22:24:26.785Z,1.15
2023-04-26T22:26:53.023Z,1.33
2023-04-26T22:29:19.444Z,0.82
2023-04-26T22:31:45.749Z,0.98
2023-04-26T22:34:14.554Z,0.93
2023-04-26T22:36:40.993Z,1.33
2023-04-26T22:39:07.302Z,1.40
2023-04-26T22:41:33.557Z,1.60
2023-04-26T22:44:02.842Z,1.60
2023-04-26T22:46:29.197Z,1.17
2023-04-26T22:48:59.657Z,1.50
2023-04-26T22:51:26.172Z,0.82
2023-04-26T22:53:52.490Z,1.33
2023-04-26T22:56:21.889Z,0.73
2023-04-26T22:58:48.183Z,1.08
2023-04-26T23:01:17.496Z,0.70
2023-04-26T23:03:43.854Z,1.10
2023-04-26T23:06:10.083Z,1.02
2023-04-26T23:08:36.320Z,1.10
2023-04-26T23:11:07.354Z,1.17
2023-04-26T23:13:33.637Z,0.80
2023-04-26T23:15:59.925Z,1.48
2023-04-26T23:18:26.201Z,1.00
2023-04-26T23:20:52.565Z,1.17
2023-04-26T23:23:20.270Z,1.02
2023-04-26T23:25:46.499Z,1.27
2023-04-26T23:28:12.892Z,1.45
2023-04-26T23:30:42.871Z,0.98
2023-04-26T23:33:09.215Z,1.00
2023-04-26T23:35:39.973Z,1.20
2023-04-26T23:38:06.428Z,1.20
2023-04-26T23:40:41.484Z,1.00
2023-04-26T23:43:07.952Z,1.15
2023-04-26T23:45:34.167Z,1.30
2023-04-26T23:48:00.601Z,1.38
2023-04-26T23:50:26.920Z,1.55
2023-04-26T23:52:53.290Z,1.33
2023-04-26T23:55:32.290Z,1.58
2023-04-26T23:57:59.482Z,1.02
